Arlington, Illinois
Current Conditions -  °F | °C
As of 4:15 AM on Saturday 25 Oct 2014 (Local Time) from KVYS Reporting Station
Haze Haze  
Wind Chill: 13°   Ceiling: 200
Heat Index: 13°   Visibility: 1mi
Dew Point: 12°   Wind: 8mph
Humidity: 92%   Direction: 300°WNW
Pressure: 29.94"   Gusts: NA
Location:  41.47°N, 89.25°W
Report Text: KVYS 250915Z AUTO 30007KT 1SM BR OVC002 13/12 A2994 RMK AO2 T01340121
Loading
Personal Weather Stations






























Interactive Weather Map
Tropical Storm Tracking
New forecast layout! Learn more

10-Day Weather Forecast

Advertisements
Track Severe Weather on mobile